ANA820 RCTP-RJFF
Flight info
| Callsign | ANA820 |
|---|---|
| Flight time | 1h 48m |
| Altitude | 41000 |
| Route | MOLKA1A MOLKA M750 MOMPA Y25 ISKUP |
| Aircraft | B789/H-SDE1E2E3FGHIJ2J3J4J5M1RWXY/LB1D1 |
Departure
| Time | 2026-05-06 16:30 |
|---|---|
| Airport | Taiwan Taoyuan International Airport (RCTP) |
Arrival
| Time | 2026-05-06 18:18 |
|---|---|
| Airport | Fukuoka Airport (RJFF) |
| Time | Latitude | Longitude | Altitude | Speed | Heading |
|---|---|---|---|---|---|
| 2026-05-06 16:20 | 25.08353 | 121.23663 | 106 ft | 0 kts | 139° |
| 2026-05-06 16:20 | 25.08358 | 121.23658 | 112 ft | 2 kts | 138° |
| 2026-05-06 16:20 | 25.08371 | 121.23646 | 113 ft | 2 kts | 139° |
| 2026-05-06 16:21 | 25.08383 | 121.23634 | 104 ft | 2 kts | 139° |
| 2026-05-06 16:21 | 25.08396 | 121.23622 | 105 ft | 2 kts | 139° |
| 2026-05-06 16:21 | 25.08408 | 121.23610 | 104 ft | 2 kts | 139° |
| 2026-05-06 16:21 | 25.08421 | 121.23598 | 104 ft | 2 kts | 140° |
| 2026-05-06 16:22 | 25.08434 | 121.23587 | 103 ft | 2 kts | 149° |
| 2026-05-06 16:22 | 25.08449 | 121.23580 | 104 ft | 2 kts | 178° |
| 2026-05-06 16:22 | 25.08465 | 121.23585 | 105 ft | 2 kts | 216° |
| 2026-05-06 16:22 | 25.08476 | 121.23597 | 105 ft | 2 kts | 231° |
| 2026-05-06 16:23 | 25.08482 | 121.23605 | 106 ft | 0 kts | 230° |
| 2026-05-06 16:23 | 25.08481 | 121.23604 | 106 ft | 1 kts | 230° |
| 2026-05-06 16:24 | 25.08464 | 121.23582 | 106 ft | 5 kts | 229° |
| 2026-05-06 16:24 | 25.08433 | 121.23543 | 105 ft | 8 kts | 229° |
| 2026-05-06 16:24 | 25.08392 | 121.23490 | 106 ft | 10 kts | 229° |
| 2026-05-06 16:24 | 25.08343 | 121.23427 | 106 ft | 11 kts | 229° |
| 2026-05-06 16:25 | 25.08287 | 121.23356 | 106 ft | 14 kts | 229° |
| 2026-05-06 16:25 | 25.08214 | 121.23263 | 105 ft | 18 kts | 229° |
| 2026-05-06 16:25 | 25.08124 | 121.23149 | 106 ft | 22 kts | 229° |
| 2026-05-06 16:25 | 25.08025 | 121.23021 | 106 ft | 22 kts | 229° |
| 2026-05-06 16:26 | 25.07924 | 121.22891 | 106 ft | 23 kts | 229° |
| 2026-05-06 16:26 | 25.07820 | 121.22759 | 106 ft | 23 kts | 229° |
| 2026-05-06 16:26 | 25.07716 | 121.22626 | 107 ft | 23 kts | 229° |
| 2026-05-06 16:26 | 25.07612 | 121.22492 | 105 ft | 24 kts | 229° |
| 2026-05-06 16:27 | 25.07505 | 121.22354 | 106 ft | 24 kts | 229° |
| 2026-05-06 16:27 | 25.07399 | 121.22221 | 106 ft | 21 kts | 229° |
| 2026-05-06 16:27 | 25.07304 | 121.22101 | 106 ft | 20 kts | 230° |
| 2026-05-06 16:27 | 25.07223 | 121.21993 | 106 ft | 14 kts | 228° |
| 2026-05-06 16:28 | 25.07156 | 121.21910 | 106 ft | 15 kts | 229° |
| 2026-05-06 16:28 | 25.07118 | 121.21816 | 106 ft | 12 kts | 289° |
| 2026-05-06 16:28 | 25.07167 | 121.21749 | 106 ft | 11 kts | 317° |
| 2026-05-06 16:28 | 25.07222 | 121.21694 | 107 ft | 11 kts | 319° |
| 2026-05-06 16:29 | 25.07284 | 121.21646 | 107 ft | 10 kts | 347° |
| 2026-05-06 16:29 | 25.07340 | 121.21666 | 106 ft | 8 kts | 41° |
| 2026-05-06 16:29 | 25.07362 | 121.21692 | 106 ft | 0 kts | 49° |
| 2026-05-06 16:29 | 25.07366 | 121.21696 | 106 ft | 0 kts | 49° |
| 2026-05-06 16:30 | 25.07388 | 121.21724 | 106 ft | 22 kts | 48° |
| 2026-05-06 16:30 | 25.07529 | 121.21902 | 106 ft | 72 kts | 50° |
| 2026-05-06 16:30 | 25.08262 | 121.22835 | 114 ft | 164 kts | 49° |
| 2026-05-06 16:30 | 25.09008 | 121.23811 | 728 ft | 161 kts | 53° |
| 2026-05-06 16:31 | 25.09761 | 121.24748 | 1398 ft | 167 kts | 47° |
| 2026-05-06 16:31 | 25.10609 | 121.25703 | 2004 ft | 186 kts | 50° |
| 2026-05-06 16:31 | 25.11473 | 121.26907 | 2475 ft | 213 kts | 52° |
| 2026-05-06 16:31 | 25.12467 | 121.28219 | 3003 ft | 238 kts | 50° |
| 2026-05-06 16:32 | 25.13617 | 121.29682 | 3493 ft | 267 kts | 50° |
| 2026-05-06 16:32 | 25.14842 | 121.31265 | 4532 ft | 272 kts | 50° |
| 2026-05-06 16:32 | 25.16082 | 121.32880 | 5580 ft | 279 kts | 49° |
| 2026-05-06 16:32 | 25.17355 | 121.34536 | 6562 ft | 286 kts | 49° |
| 2026-05-06 16:33 | 25.18657 | 121.36226 | 7525 ft | 292 kts | 49° |
| 2026-05-06 16:33 | 25.19989 | 121.37956 | 8468 ft | 299 kts | 49° |
| 2026-05-06 16:33 | 25.21349 | 121.39724 | 9413 ft | 305 kts | 48° |
| 2026-05-06 16:34 | 25.24185 | 121.43473 | 10597 ft | 341 kts | 53° |
| 2026-05-06 16:34 | 25.25488 | 121.45750 | 10824 ft | 369 kts | 59° |
| 2026-05-06 16:34 | 25.26784 | 121.48311 | 10948 ft | 396 kts | 60° |
| 2026-05-06 16:34 | 25.28255 | 121.51002 | 10989 ft | 420 kts | 57° |
| 2026-05-06 16:35 | 25.29875 | 121.53721 | 11651 ft | 423 kts | 56° |
| 2026-05-06 16:35 | 25.31466 | 121.56469 | 12352 ft | 426 kts | 58° |
| 2026-05-06 16:35 | 25.32998 | 121.59235 | 13012 ft | 429 kts | 58° |
| 2026-05-06 16:35 | 25.34574 | 121.62057 | 13654 ft | 433 kts | 58° |
| 2026-05-06 16:36 | 25.36187 | 121.64886 | 14212 ft | 436 kts | 58° |
| 2026-05-06 16:36 | 25.37814 | 121.67738 | 14753 ft | 440 kts | 58° |
| 2026-05-06 16:36 | 25.39439 | 121.70620 | 15281 ft | 443 kts | 58° |
| 2026-05-06 16:36 | 25.41074 | 121.73530 | 15800 ft | 447 kts | 58° |
| 2026-05-06 16:37 | 25.42729 | 121.76459 | 16288 ft | 450 kts | 57° |
| 2026-05-06 16:37 | 25.44376 | 121.79371 | 16750 ft | 454 kts | 57° |
| 2026-05-06 16:37 | 25.46053 | 121.82345 | 17204 ft | 458 kts | 57° |
| 2026-05-06 16:37 | 25.47742 | 121.85348 | 17639 ft | 461 kts | 57° |
| 2026-05-06 16:38 | 25.49443 | 121.88368 | 18059 ft | 464 kts | 57° |
| 2026-05-06 16:38 | 25.51158 | 121.91414 | 18428 ft | 468 kts | 57° |
| 2026-05-06 16:38 | 25.52887 | 121.94489 | 18794 ft | 471 kts | 57° |
| 2026-05-06 16:38 | 25.54621 | 121.97577 | 19137 ft | 474 kts | 57° |
| 2026-05-06 16:39 | 25.56361 | 122.00676 | 19473 ft | 476 kts | 57° |
| 2026-05-06 16:39 | 25.58118 | 122.03805 | 19818 ft | 479 kts | 57° |
| 2026-05-06 16:39 | 25.59856 | 122.06904 | 20111 ft | 482 kts | 57° |
| 2026-05-06 16:39 | 25.61628 | 122.10067 | 20431 ft | 485 kts | 57° |
| 2026-05-06 16:40 | 25.63411 | 122.13251 | 20741 ft | 487 kts | 57° |
| 2026-05-06 16:40 | 25.65204 | 122.16453 | 21049 ft | 490 kts | 57° |
| 2026-05-06 16:40 | 25.67006 | 122.19674 | 21338 ft | 492 kts | 57° |
| 2026-05-06 16:40 | 25.68790 | 122.22867 | 21634 ft | 495 kts | 57° |
| 2026-05-06 16:41 | 25.70606 | 122.26119 | 21923 ft | 497 kts | 57° |
| 2026-05-06 16:41 | 25.72433 | 122.29392 | 22211 ft | 499 kts | 57° |
| 2026-05-06 16:41 | 25.74270 | 122.32685 | 22488 ft | 502 kts | 57° |
| 2026-05-06 16:41 | 25.76111 | 122.35990 | 22763 ft | 504 kts | 57° |
| 2026-05-06 16:42 | 25.77933 | 122.39261 | 23019 ft | 506 kts | 57° |
| 2026-05-06 16:42 | 25.79786 | 122.42591 | 23288 ft | 508 kts | 57° |
| 2026-05-06 16:42 | 25.81653 | 122.45947 | 23532 ft | 510 kts | 57° |
| 2026-05-06 16:42 | 25.83518 | 122.49302 | 23746 ft | 512 kts | 57° |
| 2026-05-06 16:43 | 25.85365 | 122.52629 | 23942 ft | 513 kts | 57° |
| 2026-05-06 16:43 | 25.87240 | 122.56008 | 24149 ft | 515 kts | 57° |
| 2026-05-06 16:43 | 25.89121 | 122.59401 | 24347 ft | 516 kts | 57° |
| 2026-05-06 16:43 | 25.91006 | 122.62802 | 24541 ft | 518 kts | 57° |
| 2026-05-06 16:44 | 25.92900 | 122.66224 | 24723 ft | 519 kts | 57° |
| 2026-05-06 16:44 | 25.94798 | 122.69653 | 24917 ft | 521 kts | 57° |
| 2026-05-06 16:44 | 25.96697 | 122.73088 | 25097 ft | 522 kts | 57° |
| 2026-05-06 16:44 | 25.98578 | 122.76494 | 25271 ft | 524 kts | 57° |
| 2026-05-06 16:45 | 26.00487 | 122.79952 | 25457 ft | 525 kts | 57° |
| 2026-05-06 16:45 | 26.02398 | 122.83416 | 25646 ft | 527 kts | 57° |
| 2026-05-06 16:45 | 26.04314 | 122.86891 | 25828 ft | 528 kts | 57° |
| 2026-05-06 16:45 | 26.06232 | 122.90374 | 26014 ft | 529 kts | 57° |
| 2026-05-06 16:46 | 26.08148 | 122.93855 | 26209 ft | 531 kts | 56° |
| 2026-05-06 16:46 | 26.10077 | 122.97363 | 26396 ft | 532 kts | 56° |
| 2026-05-06 16:46 | 26.12011 | 123.00884 | 26592 ft | 534 kts | 56° |
| 2026-05-06 16:46 | 26.13956 | 123.04425 | 26788 ft | 536 kts | 56° |
| 2026-05-06 16:47 | 26.15878 | 123.07928 | 26978 ft | 537 kts | 56° |
| 2026-05-06 16:47 | 26.17830 | 123.11488 | 27182 ft | 539 kts | 56° |
| 2026-05-06 16:47 | 26.19789 | 123.15065 | 27371 ft | 541 kts | 56° |
| 2026-05-06 16:47 | 26.21747 | 123.18642 | 27584 ft | 542 kts | 56° |
| 2026-05-06 16:48 | 26.23713 | 123.22237 | 27776 ft | 544 kts | 56° |
| 2026-05-06 16:48 | 26.25660 | 123.25799 | 27976 ft | 545 kts | 56° |
| 2026-05-06 16:48 | 26.27635 | 123.29415 | 28170 ft | 547 kts | 56° |
| 2026-05-06 16:48 | 26.29616 | 123.33046 | 28365 ft | 549 kts | 56° |
| 2026-05-06 16:49 | 26.31601 | 123.36687 | 28572 ft | 550 kts | 56° |
| 2026-05-06 16:49 | 26.33591 | 123.40340 | 28767 ft | 552 kts | 56° |
| 2026-05-06 16:49 | 26.35587 | 123.44006 | 28966 ft | 554 kts | 56° |
| 2026-05-06 16:49 | 26.37586 | 123.47683 | 29253 ft | 554 kts | 56° |
| 2026-05-06 16:50 | 26.39555 | 123.51308 | 29571 ft | 553 kts | 56° |
| 2026-05-06 16:50 | 26.41553 | 123.54986 | 29912 ft | 553 kts | 56° |
| 2026-05-06 16:50 | 26.43543 | 123.58653 | 30253 ft | 552 kts | 56° |
| 2026-05-06 16:50 | 26.44861 | 123.61085 | 30495 ft | 551 kts | 56° |
| 2026-05-06 16:51 | 26.47510 | 123.65976 | 31047 ft | 548 kts | 56° |
| 2026-05-06 16:51 | 26.49451 | 123.69563 | 31482 ft | 545 kts | 56° |
| 2026-05-06 16:51 | 26.51407 | 123.73178 | 31924 ft | 542 kts | 56° |
| 2026-05-06 16:51 | 26.53355 | 123.76784 | 32380 ft | 540 kts | 56° |
| 2026-05-06 16:52 | 26.55291 | 123.80371 | 32854 ft | 538 kts | 56° |
| 2026-05-06 16:52 | 26.57218 | 123.83942 | 33310 ft | 535 kts | 56° |
| 2026-05-06 16:52 | 26.59133 | 123.87495 | 33790 ft | 533 kts | 56° |
| 2026-05-06 16:52 | 26.61017 | 123.90992 | 34220 ft | 531 kts | 56° |
| 2026-05-06 16:53 | 26.62907 | 123.94503 | 34574 ft | 530 kts | 56° |
| 2026-05-06 16:53 | 26.64817 | 123.98055 | 34927 ft | 529 kts | 55° |
| 2026-05-06 16:53 | 26.66914 | 124.01406 | 35272 ft | 522 kts | 46° |
| 2026-05-06 16:53 | 26.69210 | 124.04483 | 35535 ft | 523 kts | 46° |
| 2026-05-06 16:54 | 26.71556 | 124.07618 | 35887 ft | 522 kts | 46° |
| 2026-05-06 16:54 | 26.73884 | 124.10725 | 36234 ft | 521 kts | 46° |
| 2026-05-06 16:54 | 26.76202 | 124.13832 | 36575 ft | 520 kts | 46° |
| 2026-05-06 16:54 | 26.78528 | 124.16957 | 36939 ft | 519 kts | 46° |
| 2026-05-06 16:55 | 26.80826 | 124.20038 | 37002 ft | 523 kts | 46° |
| 2026-05-06 16:55 | 26.85475 | 124.26282 | 37004 ft | 517 kts | 46° |
| 2026-05-06 16:56 | 26.90054 | 124.32439 | 37001 ft | 516 kts | 46° |
| 2026-05-06 16:56 | 26.94650 | 124.38628 | 37004 ft | 516 kts | 46° |
| 2026-05-06 16:57 | 26.99186 | 124.44746 | 37006 ft | 516 kts | 46° |
| 2026-05-06 16:57 | 27.03807 | 124.50981 | 36999 ft | 515 kts | 46° |
| 2026-05-06 16:58 | 27.08348 | 124.57118 | 37009 ft | 515 kts | 46° |
| 2026-05-06 16:58 | 27.12934 | 124.63323 | 37013 ft | 515 kts | 46° |
| 2026-05-06 16:59 | 27.17509 | 124.69524 | 37020 ft | 515 kts | 46° |
| 2026-05-06 16:59 | 27.22048 | 124.75683 | 37013 ft | 515 kts | 46° |
| 2026-05-06 17:00 | 27.26621 | 124.81898 | 37013 ft | 516 kts | 46° |
| 2026-05-06 17:00 | 27.31193 | 124.88121 | 37025 ft | 516 kts | 46° |
| 2026-05-06 17:01 | 27.35754 | 124.94336 | 37018 ft | 515 kts | 46° |
| 2026-05-06 17:01 | 27.40275 | 125.00506 | 37017 ft | 515 kts | 46° |
| 2026-05-06 17:02 | 27.44870 | 125.06689 | 37008 ft | 514 kts | 46° |
| 2026-05-06 17:02 | 27.49450 | 125.12872 | 37012 ft | 514 kts | 46° |
| 2026-05-06 17:03 | 27.54031 | 125.19067 | 37013 ft | 515 kts | 46° |
| 2026-05-06 17:03 | 27.58582 | 125.25225 | 37017 ft | 514 kts | 46° |
| 2026-05-06 17:04 | 27.63151 | 125.31422 | 37019 ft | 512 kts | 46° |
| 2026-05-06 17:04 | 27.67700 | 125.37594 | 37012 ft | 511 kts | 46° |
| 2026-05-06 17:05 | 27.72237 | 125.43765 | 37016 ft | 511 kts | 46° |
| 2026-05-06 17:05 | 27.76742 | 125.49897 | 37015 ft | 510 kts | 46° |
| 2026-05-06 17:06 | 27.81266 | 125.56066 | 37015 ft | 510 kts | 46° |
| 2026-05-06 17:06 | 27.85799 | 125.62254 | 37017 ft | 511 kts | 46° |
| 2026-05-06 17:07 | 27.90318 | 125.68435 | 37016 ft | 510 kts | 46° |
| 2026-05-06 17:07 | 27.94807 | 125.74581 | 37016 ft | 509 kts | 46° |
| 2026-05-06 17:08 | 27.99316 | 125.80764 | 37020 ft | 509 kts | 46° |
| 2026-05-06 17:08 | 28.03815 | 125.86943 | 37018 ft | 509 kts | 46° |
| 2026-05-06 17:09 | 28.08316 | 125.93132 | 37017 ft | 509 kts | 46° |
| 2026-05-06 17:09 | 28.12812 | 125.99326 | 37018 ft | 509 kts | 46° |
| 2026-05-06 17:10 | 28.17281 | 126.05489 | 37020 ft | 508 kts | 46° |
| 2026-05-06 17:10 | 28.21740 | 126.11649 | 37014 ft | 508 kts | 46° |
| 2026-05-06 17:11 | 28.26216 | 126.17842 | 37013 ft | 507 kts | 46° |
| 2026-05-06 17:11 | 28.30687 | 126.24036 | 37022 ft | 507 kts | 46° |
| 2026-05-06 17:12 | 28.35136 | 126.30207 | 37018 ft | 507 kts | 46° |
| 2026-05-06 17:12 | 28.39596 | 126.36405 | 37013 ft | 506 kts | 46° |
| 2026-05-06 17:13 | 28.44018 | 126.42558 | 37015 ft | 506 kts | 46° |
| 2026-05-06 17:13 | 28.48467 | 126.48757 | 37016 ft | 506 kts | 46° |
| 2026-05-06 17:14 | 28.52909 | 126.54957 | 37014 ft | 505 kts | 46° |
| 2026-05-06 17:14 | 28.57325 | 126.61128 | 37015 ft | 506 kts | 46° |
| 2026-05-06 17:15 | 28.61760 | 126.67336 | 37016 ft | 505 kts | 47° |
| 2026-05-06 17:15 | 28.66195 | 126.73552 | 37014 ft | 505 kts | 47° |
| 2026-05-06 17:16 | 28.70587 | 126.79718 | 37015 ft | 504 kts | 47° |
| 2026-05-06 17:16 | 28.75008 | 126.85934 | 37015 ft | 504 kts | 47° |
| 2026-05-06 17:17 | 28.79418 | 126.92144 | 37013 ft | 504 kts | 47° |
| 2026-05-06 17:17 | 28.83795 | 126.98316 | 37016 ft | 503 kts | 47° |
| 2026-05-06 17:18 | 28.88201 | 127.04537 | 37014 ft | 503 kts | 47° |
| 2026-05-06 17:18 | 28.92591 | 127.10747 | 37015 ft | 503 kts | 47° |
| 2026-05-06 17:19 | 28.96956 | 127.16929 | 37016 ft | 502 kts | 47° |
| 2026-05-06 17:19 | 29.01329 | 127.23133 | 37017 ft | 501 kts | 47° |
| 2026-05-06 17:20 | 29.05674 | 127.29306 | 37018 ft | 501 kts | 47° |
| 2026-05-06 17:20 | 29.10040 | 127.35517 | 37015 ft | 501 kts | 47° |
| 2026-05-06 17:21 | 29.14400 | 127.41730 | 37019 ft | 500 kts | 47° |
| 2026-05-06 17:21 | 29.18754 | 127.47944 | 37019 ft | 500 kts | 47° |
| 2026-05-06 17:22 | 29.23071 | 127.54113 | 37017 ft | 500 kts | 47° |
| 2026-05-06 17:22 | 29.27420 | 127.60339 | 37021 ft | 500 kts | 47° |
| 2026-05-06 17:23 | 29.31759 | 127.66560 | 37018 ft | 499 kts | 47° |
| 2026-05-06 17:23 | 29.36057 | 127.72729 | 37021 ft | 499 kts | 47° |
| 2026-05-06 17:24 | 29.40380 | 127.78946 | 37020 ft | 498 kts | 47° |
| 2026-05-06 17:24 | 29.44693 | 127.85158 | 37023 ft | 498 kts | 47° |
| 2026-05-06 17:25 | 29.49004 | 127.91375 | 37021 ft | 498 kts | 47° |
| 2026-05-06 17:25 | 29.53310 | 127.97595 | 37022 ft | 497 kts | 47° |
| 2026-05-06 17:26 | 29.57585 | 128.03771 | 37013 ft | 497 kts | 47° |
| 2026-05-06 17:26 | 29.61156 | 128.08939 | 37019 ft | 497 kts | 47° |
| 2026-05-06 17:27 | 29.65448 | 128.15159 | 37019 ft | 496 kts | 47° |
| 2026-05-06 17:27 | 29.70458 | 128.22429 | 37015 ft | 496 kts | 47° |
| 2026-05-06 17:28 | 29.74711 | 128.28614 | 37020 ft | 496 kts | 47° |
| 2026-05-06 17:28 | 29.78986 | 128.34838 | 37018 ft | 496 kts | 47° |
| 2026-05-06 17:29 | 29.82545 | 128.40028 | 37025 ft | 496 kts | 47° |
| 2026-05-06 17:29 | 29.87505 | 128.47272 | 37021 ft | 495 kts | 48° |
| 2026-05-06 17:30 | 29.91058 | 128.52468 | 37024 ft | 496 kts | 48° |
| 2026-05-06 17:30 | 29.95321 | 128.58712 | 37018 ft | 495 kts | 48° |
| 2026-05-06 17:31 | 29.99578 | 128.64957 | 37021 ft | 495 kts | 48° |
| 2026-05-06 17:31 | 30.03803 | 128.71166 | 37026 ft | 494 kts | 48° |
| 2026-05-06 17:32 | 30.08046 | 128.77409 | 37018 ft | 494 kts | 48° |
| 2026-05-06 17:32 | 30.12283 | 128.83655 | 37021 ft | 494 kts | 48° |
| 2026-05-06 17:33 | 30.16517 | 128.89903 | 37027 ft | 494 kts | 48° |
| 2026-05-06 17:33 | 30.20725 | 128.96125 | 37018 ft | 494 kts | 48° |
| 2026-05-06 17:34 | 30.24950 | 129.02382 | 37016 ft | 493 kts | 48° |
| 2026-05-06 17:34 | 30.29175 | 129.08648 | 37022 ft | 494 kts | 49° |
| 2026-05-06 17:35 | 30.33366 | 129.14874 | 37018 ft | 494 kts | 49° |
| 2026-05-06 17:35 | 30.37585 | 129.21150 | 37022 ft | 493 kts | 49° |
| 2026-05-06 17:36 | 30.43894 | 129.30556 | 37024 ft | 493 kts | 49° |
| 2026-05-06 17:36 | 30.48095 | 129.36832 | 37026 ft | 492 kts | 49° |
| 2026-05-06 17:37 | 30.52264 | 129.43068 | 37028 ft | 492 kts | 49° |
| 2026-05-06 17:37 | 30.56458 | 129.49352 | 37028 ft | 492 kts | 49° |
| 2026-05-06 17:38 | 30.60650 | 129.55644 | 37031 ft | 493 kts | 49° |
| 2026-05-06 17:38 | 30.64813 | 129.61902 | 37028 ft | 492 kts | 49° |
| 2026-05-06 17:39 | 30.68995 | 129.68198 | 37029 ft | 492 kts | 49° |
| 2026-05-06 17:39 | 30.73181 | 129.74510 | 37029 ft | 493 kts | 49° |
| 2026-05-06 17:40 | 30.77332 | 129.80780 | 37039 ft | 492 kts | 49° |
| 2026-05-06 17:40 | 30.81727 | 129.86805 | 37045 ft | 486 kts | 38° |
| 2026-05-06 17:41 | 30.87396 | 129.90925 | 37051 ft | 481 kts | 19° |
| 2026-05-06 17:41 | 30.93873 | 129.92602 | 37046 ft | 478 kts | 4° |
| 2026-05-06 17:42 | 31.00479 | 129.93351 | 37036 ft | 479 kts | 4° |
| 2026-05-06 17:42 | 31.07117 | 129.94066 | 37034 ft | 479 kts | 4° |
| 2026-05-06 17:43 | 31.13759 | 129.94808 | 37042 ft | 479 kts | 4° |
| 2026-05-06 17:43 | 31.20347 | 129.95530 | 37041 ft | 479 kts | 4° |
| 2026-05-06 17:44 | 31.26987 | 129.96267 | 37042 ft | 479 kts | 4° |
| 2026-05-06 17:44 | 31.33600 | 129.96820 | 37040 ft | 480 kts | 2° |
| 2026-05-06 17:45 | 31.40280 | 129.97390 | 37041 ft | 480 kts | 2° |
| 2026-05-06 17:45 | 31.46943 | 129.97894 | 37044 ft | 480 kts | 2° |
| 2026-05-06 17:46 | 31.53617 | 129.98436 | 37046 ft | 481 kts | 2° |
| 2026-05-06 17:46 | 31.60254 | 129.98957 | 37043 ft | 481 kts | 2° |
| 2026-05-06 17:47 | 31.66922 | 129.99490 | 37041 ft | 481 kts | 2° |
| 2026-05-06 17:47 | 31.73594 | 130.00020 | 37047 ft | 480 kts | 2° |
| 2026-05-06 17:48 | 31.80249 | 130.00551 | 37041 ft | 479 kts | 2° |
| 2026-05-06 17:48 | 31.86870 | 130.01079 | 37040 ft | 480 kts | 2° |
| 2026-05-06 17:49 | 31.93551 | 130.01614 | 37040 ft | 481 kts | 2° |
| 2026-05-06 17:49 | 32.00237 | 130.02149 | 37049 ft | 482 kts | 2° |
| 2026-05-06 17:50 | 32.06879 | 130.02683 | 37042 ft | 482 kts | 2° |
| 2026-05-06 17:50 | 32.13582 | 130.03223 | 37045 ft | 482 kts | 2° |
| 2026-05-06 17:51 | 32.20230 | 130.03759 | 37051 ft | 482 kts | 2° |
| 2026-05-06 17:51 | 32.26942 | 130.04301 | 37050 ft | 482 kts | 2° |
| 2026-05-06 17:52 | 32.33654 | 130.04844 | 37048 ft | 480 kts | 2° |
| 2026-05-06 17:52 | 32.36966 | 130.05113 | 36559 ft | 476 kts | 2° |
| 2026-05-06 17:52 | 32.40305 | 130.05384 | 35931 ft | 484 kts | 2° |
| 2026-05-06 17:53 | 32.43619 | 130.05652 | 35544 ft | 484 kts | 2° |
| 2026-05-06 17:53 | 32.46989 | 130.05926 | 35051 ft | 486 kts | 2° |
| 2026-05-06 17:53 | 32.50370 | 130.06201 | 34578 ft | 488 kts | 2° |
| 2026-05-06 17:53 | 32.53772 | 130.06477 | 34092 ft | 490 kts | 2° |
| 2026-05-06 17:54 | 32.57140 | 130.06751 | 33543 ft | 492 kts | 2° |
| 2026-05-06 17:54 | 32.60568 | 130.06794 | 32930 ft | 493 kts | 353° |
| 2026-05-06 17:54 | 32.63957 | 130.06138 | 32317 ft | 495 kts | 347° |
| 2026-05-06 17:54 | 32.67357 | 130.05285 | 31934 ft | 498 kts | 347° |
| 2026-05-06 17:55 | 32.70721 | 130.04429 | 31596 ft | 500 kts | 347° |
| 2026-05-06 17:55 | 32.74127 | 130.03556 | 31242 ft | 502 kts | 347° |
| 2026-05-06 17:55 | 32.77550 | 130.02685 | 30879 ft | 504 kts | 347° |
| 2026-05-06 17:55 | 32.80986 | 130.01815 | 30503 ft | 506 kts | 347° |
| 2026-05-06 17:56 | 32.84426 | 130.00940 | 29898 ft | 502 kts | 347° |
| 2026-05-06 17:56 | 32.87788 | 130.00081 | 28895 ft | 499 kts | 346° |
| 2026-05-06 17:56 | 32.91155 | 129.99221 | 27919 ft | 494 kts | 346° |
| 2026-05-06 17:56 | 32.94507 | 129.98366 | 26954 ft | 489 kts | 346° |
| 2026-05-06 17:57 | 32.97830 | 129.97518 | 26007 ft | 485 kts | 346° |
| 2026-05-06 17:57 | 33.01119 | 129.96677 | 25081 ft | 481 kts | 346° |
| 2026-05-06 17:57 | 33.04374 | 129.95844 | 24156 ft | 477 kts | 346° |
| 2026-05-06 17:57 | 33.07608 | 129.95016 | 23189 ft | 473 kts | 346° |
| 2026-05-06 17:58 | 33.10749 | 129.94212 | 22303 ft | 465 kts | 346° |
| 2026-05-06 17:58 | 33.13884 | 129.93408 | 21427 ft | 457 kts | 346° |
| 2026-05-06 17:58 | 33.16974 | 129.92614 | 20556 ft | 451 kts | 346° |
| 2026-05-06 17:58 | 33.20024 | 129.91831 | 19705 ft | 445 kts | 346° |
| 2026-05-06 17:59 | 33.23032 | 129.91058 | 18869 ft | 439 kts | 346° |
| 2026-05-06 17:59 | 33.26005 | 129.90294 | 17998 ft | 435 kts | 346° |
| 2026-05-06 17:59 | 33.28906 | 129.89549 | 17179 ft | 427 kts | 346° |
| 2026-05-06 17:59 | 33.31785 | 129.88808 | 16387 ft | 420 kts | 346° |
| 2026-05-06 18:00 | 33.34621 | 129.88077 | 15596 ft | 413 kts | 346° |
| 2026-05-06 18:00 | 33.37414 | 129.87357 | 14786 ft | 408 kts | 346° |
| 2026-05-06 18:00 | 33.40173 | 129.86645 | 14024 ft | 403 kts | 346° |
| 2026-05-06 18:00 | 33.42888 | 129.85945 | 13241 ft | 396 kts | 346° |
| 2026-05-06 18:01 | 33.45561 | 129.85256 | 12501 ft | 388 kts | 347° |
| 2026-05-06 18:01 | 33.48219 | 129.84995 | 11782 ft | 382 kts | 3° |
| 2026-05-06 18:01 | 33.50761 | 129.85621 | 11189 ft | 373 kts | 16° |
| 2026-05-06 18:01 | 33.53194 | 129.86484 | 10943 ft | 355 kts | 15° |
| 2026-05-06 18:02 | 33.55488 | 129.87299 | 10804 ft | 334 kts | 15° |
| 2026-05-06 18:02 | 33.57652 | 129.88076 | 10675 ft | 315 kts | 15° |
| 2026-05-06 18:02 | 33.59696 | 129.88807 | 10540 ft | 298 kts | 15° |
| 2026-05-06 18:02 | 33.61633 | 129.89498 | 10410 ft | 283 kts | 15° |
| 2026-05-06 18:03 | 33.63524 | 129.90172 | 10143 ft | 285 kts | 15° |
| 2026-05-06 18:03 | 33.65432 | 129.90852 | 9840 ft | 285 kts | 15° |
| 2026-05-06 18:03 | 33.67302 | 129.91522 | 9552 ft | 285 kts | 15° |
| 2026-05-06 18:03 | 33.69202 | 129.92202 | 9262 ft | 283 kts | 15° |
| 2026-05-06 18:04 | 33.71064 | 129.92869 | 8972 ft | 279 kts | 15° |
| 2026-05-06 18:04 | 33.72938 | 129.93539 | 8694 ft | 281 kts | 15° |
| 2026-05-06 18:04 | 33.74810 | 129.94209 | 8401 ft | 281 kts | 15° |
| 2026-05-06 18:04 | 33.76680 | 129.94880 | 8155 ft | 281 kts | 15° |
| 2026-05-06 18:05 | 33.78555 | 129.95360 | 7910 ft | 271 kts | 0° |
| 2026-05-06 18:05 | 33.80430 | 129.95443 | 7745 ft | 277 kts | 3° |
| 2026-05-06 18:05 | 33.82345 | 129.95648 | 7568 ft | 273 kts | 3° |
| 2026-05-06 18:05 | 33.84192 | 129.95822 | 7409 ft | 258 kts | 2° |
| 2026-05-06 18:06 | 33.85923 | 129.95955 | 7252 ft | 241 kts | 2° |
| 2026-05-06 18:06 | 33.87549 | 129.96112 | 7080 ft | 230 kts | 7° |
| 2026-05-06 18:06 | 33.89034 | 129.96869 | 6859 ft | 237 kts | 28° |
| 2026-05-06 18:06 | 33.90492 | 129.97749 | 6745 ft | 230 kts | 25° |
| 2026-05-06 18:07 | 33.91928 | 129.98583 | 6615 ft | 229 kts | 25° |
| 2026-05-06 18:07 | 33.93357 | 129.99428 | 6463 ft | 227 kts | 25° |
| 2026-05-06 18:07 | 33.94747 | 130.00258 | 6320 ft | 226 kts | 25° |
| 2026-05-06 18:07 | 33.96055 | 130.01289 | 6116 ft | 227 kts | 49° |
| 2026-05-06 18:08 | 33.96689 | 130.02992 | 5938 ft | 223 kts | 83° |
| 2026-05-06 18:08 | 33.96462 | 130.04791 | 5777 ft | 217 kts | 117° |
| 2026-05-06 18:08 | 33.95610 | 130.06258 | 5662 ft | 213 kts | 131° |
| 2026-05-06 18:08 | 33.94687 | 130.07670 | 5564 ft | 220 kts | 131° |
| 2026-05-06 18:09 | 33.93698 | 130.09186 | 5436 ft | 236 kts | 131° |
| 2026-05-06 18:09 | 33.92693 | 130.10751 | 5293 ft | 237 kts | 131° |
| 2026-05-06 18:09 | 33.91786 | 130.12167 | 5147 ft | 238 kts | 131° |
| 2026-05-06 18:09 | 33.90789 | 130.13716 | 4992 ft | 238 kts | 131° |
| 2026-05-06 18:10 | 33.89775 | 130.15288 | 4838 ft | 237 kts | 131° |
| 2026-05-06 18:10 | 33.88766 | 130.16851 | 4659 ft | 237 kts | 131° |
| 2026-05-06 18:10 | 33.87758 | 130.18412 | 4500 ft | 236 kts | 131° |
| 2026-05-06 18:10 | 33.86777 | 130.19936 | 4320 ft | 222 kts | 131° |
| 2026-05-06 18:11 | 33.85847 | 130.21378 | 4167 ft | 216 kts | 131° |
| 2026-05-06 18:11 | 33.84930 | 130.22794 | 4021 ft | 213 kts | 131° |
| 2026-05-06 18:11 | 33.84022 | 130.24197 | 3881 ft | 212 kts | 131° |
| 2026-05-06 18:11 | 33.83145 | 130.25556 | 3743 ft | 203 kts | 131° |
| 2026-05-06 18:12 | 33.82301 | 130.26864 | 3610 ft | 193 kts | 131° |
| 2026-05-06 18:12 | 33.81485 | 130.28124 | 3496 ft | 190 kts | 131° |
| 2026-05-06 18:12 | 33.80675 | 130.29374 | 3370 ft | 189 kts | 130° |
| 2026-05-06 18:12 | 33.79838 | 130.30576 | 3210 ft | 186 kts | 140° |
| 2026-05-06 18:13 | 33.78734 | 130.31284 | 3097 ft | 173 kts | 157° |
| 2026-05-06 18:13 | 33.77709 | 130.31957 | 2983 ft | 163 kts | 153° |
| 2026-05-06 18:13 | 33.76752 | 130.32608 | 2889 ft | 155 kts | 152° |
| 2026-05-06 18:13 | 33.75819 | 130.33249 | 2781 ft | 153 kts | 152° |
| 2026-05-06 18:14 | 33.74907 | 130.33876 | 2684 ft | 150 kts | 152° |
| 2026-05-06 18:14 | 33.74016 | 130.34486 | 2580 ft | 149 kts | 152° |
| 2026-05-06 18:14 | 33.73115 | 130.35105 | 2492 ft | 150 kts | 152° |
| 2026-05-06 18:14 | 33.72118 | 130.35786 | 2415 ft | 177 kts | 152° |
| 2026-05-06 18:15 | 33.71052 | 130.36516 | 2319 ft | 177 kts | 151° |
| 2026-05-06 18:15 | 33.70053 | 130.37203 | 2185 ft | 155 kts | 151° |
| 2026-05-06 18:15 | 33.69130 | 130.37836 | 2072 ft | 151 kts | 151° |
| 2026-05-06 18:15 | 33.68219 | 130.38460 | 1938 ft | 152 kts | 151° |
| 2026-05-06 18:16 | 33.67299 | 130.39091 | 1727 ft | 151 kts | 151° |
| 2026-05-06 18:16 | 33.66390 | 130.39715 | 1530 ft | 150 kts | 150° |
| 2026-05-06 18:16 | 33.65494 | 130.40329 | 1331 ft | 150 kts | 150° |
| 2026-05-06 18:16 | 33.64595 | 130.40955 | 1122 ft | 149 kts | 150° |
| 2026-05-06 18:17 | 33.63705 | 130.41585 | 927 ft | 149 kts | 149° |
| 2026-05-06 18:17 | 33.62809 | 130.42195 | 731 ft | 146 kts | 150° |
| 2026-05-06 18:17 | 33.61917 | 130.42786 | 554 ft | 148 kts | 150° |
| 2026-05-06 18:17 | 33.61031 | 130.43389 | 366 ft | 145 kts | 150° |
| 2026-05-06 18:18 | 33.60156 | 130.43997 | 171 ft | 144 kts | 149° |
| 2026-05-06 18:18 | 33.59305 | 130.44578 | 42 ft | 138 kts | 149° |
| 2026-05-06 18:18 | 33.58682 | 130.45009 | 41 ft | 65 kts | 150° |
| 2026-05-06 18:18 | 33.58389 | 130.45244 | 39 ft | 35 kts | 134° |
| 2026-05-06 18:19 | 33.58306 | 130.45412 | 37 ft | 20 kts | 98° |
| 2026-05-06 18:19 | 33.58349 | 130.45465 | 39 ft | 7 kts | 348° |
| 2026-05-06 18:19 | 33.58384 | 130.45441 | 40 ft | 6 kts | 328° |
| 2026-05-06 18:19 | 33.58423 | 130.45412 | 40 ft | 7 kts | 328° |
| 2026-05-06 18:20 | 33.58479 | 130.45374 | 40 ft | 13 kts | 330° |
| 2026-05-06 18:20 | 33.58579 | 130.45306 | 39 ft | 19 kts | 330° |
| 2026-05-06 18:20 | 33.58695 | 130.45226 | 41 ft | 20 kts | 329° |
| 2026-05-06 18:20 | 33.58820 | 130.45140 | 38 ft | 22 kts | 330° |
| 2026-05-06 18:21 | 33.58959 | 130.45045 | 36 ft | 24 kts | 330° |
| 2026-05-06 18:21 | 33.59110 | 130.44942 | 31 ft | 27 kts | 330° |
| 2026-05-06 18:21 | 33.59272 | 130.44850 | 30 ft | 24 kts | 355° |
| 2026-05-06 18:21 | 33.59426 | 130.44823 | 30 ft | 22 kts | 333° |
| 2026-05-06 18:22 | 33.59515 | 130.44764 | 31 ft | 9 kts | 329° |
| 2026-05-06 18:22 | 33.59550 | 130.44771 | 31 ft | 4 kts | 43° |
| 2026-05-06 18:22 | 33.59565 | 130.44802 | 30 ft | 6 kts | 61° |
| 2026-05-06 18:22 | 33.59575 | 130.44825 | 30 ft | 0 kts | 61° |